Time;durP1;ratioP1;P1;durP2;ratioP2;P2;SDS_P1;SDS_P2;PMS_P1;PMS_P2;Temp;Humidity;BMP_temperature;BMP_pressure;BME280_temperature;BME280_humidity;BME280_pressure;Samples;Min_cycle;Max_cycle;Signal;HPM_P1;HPM_P2
2023/09/14 04:06:38;;;;;;;;;19.67;18.67;;;;;;;;6294618;39;9999742;-57
2023/09/14 04:12:43;;;;;;;;;18.00;17.33;;;;;;;;6492098;31;8920;-58
2023/09/14 04:18:50;;;;;;;;;22.67;20.67;;;;;;;;6490987;31;8951;-57
2023/09/14 04:24:57;;;;;;;;;25.67;22.67;;;;;;;;6492476;31;8958;-58
2023/09/14 04:31:02;;;;;;;;;23.00;22.33;;;;;;;;6491289;31;149067;-59
2023/09/14 04:37:05;;;;;;;;;20.67;20.67;;;;;;;;6491439;39;8892;-59
2023/09/14 04:43:09;;;;;;;;;26.33;23.33;;;;;;;;6491116;39;8915;-61
2023/09/14 04:49:14;;;;;;;;;26.33;23.67;;;;;;;;6492306;39;8966;-58
2023/09/14 04:55:18;;;;;;;;;27.33;23.67;;;;;;;;6492433;39;8962;-57
2023/09/14 05:01:21;;;;;;;;;26.67;22.33;;;;;;;;6491476;39;8911;-58
2023/09/14 05:07:27;;;;;;;;;31.00;27.33;;;;;;;;6492063;47;8887;-58
2023/09/14 05:13:30;;;;;;;;;30.33;28.00;;;;;;;;6490893;47;9099;-59
2023/09/14 05:19:35;;;;;;;;;34.67;30.33;;;;;;;;6491399;31;8922;-58
2023/09/14 05:25:40;;;;;;;;;29.67;29.33;;;;;;;;6492091;31;8910;-58
2023/09/14 05:31:42;;;;;;;;;34.67;31.00;;;;;;;;6491100;39;9055;-58
2023/09/14 05:37:46;;;;;;;;;32.33;31.00;;;;;;;;6491680;39;8926;-59
2023/09/14 05:43:52;;;;;;;;;29.50;28.00;;;;;;;;6492228;39;8955;-56
2023/09/14 05:49:58;;;;;;;;;34.67;29.00;;;;;;;;6491772;39;9693;-59
2023/09/14 05:56:08;;;;;;;;;33.33;32.00;;;;;;;;6493185;46;8989;-59
2023/09/14 06:02:14;;;;;;;;;34.67;29.33;;;;;;;;6493441;31;8958;-59
2023/09/14 06:08:16;;;;;;;;;26.67;26.67;;;;;;;;6492603;46;8896;-60
2023/09/14 06:14:22;;;;;;;;;30.67;29.33;;;;;;;;6492323;39;8930;-59
2023/09/14 06:20:25;;;;;;;;;31.67;30.00;;;;;;;;6491193;31;8883;-59
2023/09/14 06:26:29;;;;;;;;;34.33;29.00;;;;;;;;6487487;31;8819;-58
2023/09/14 06:32:32;;;;;;;;;35.67;31.33;;;;;;;;6490028;39;9055;-59
2023/09/14 06:38:37;;;;;;;;;21.25;21.25;;;;;;;;6489851;39;8902;-59
2023/09/14 06:44:40;;;;;;;;;22.75;20.75;;;;;;;;6489229;39;8888;-59
2023/09/14 06:50:46;;;;;;;;;18.25;18.25;;;;;;;;6489251;39;8917;-60
2023/09/14 06:56:50;;;;;;;;;30.33;29.00;;;;;;;;6487850;39;8911;-58
2023/09/14 07:02:56;;;;;;;;;28.00;22.00;;;;;;;;6489759;39;8917;-59
2023/09/14 07:08:58;;;;;;;;;25.25;23.75;;;;;;;;6488569;39;8863;-60
2023/09/14 07:15:04;;;;;;;;;25.00;25.00;;;;;;;;6489420;31;8879;-59
2023/09/14 07:21:08;;;;;;;;;26.25;22.75;;;;;;;;6490167;39;8867;-59
2023/09/14 07:27:15;;;;;;;;;24.25;22.25;;;;;;;;6487566;39;9000;-60
2023/09/14 07:33:21;;;;;;;;;20.25;19.50;;;;;;;;6489222;31;8871;-59
2023/09/14 07:39:26;;;;;;;;;29.25;25.50;;;;;;;;6489049;39;9466;-60
2023/09/14 07:45:33;;;;;;;;;24.00;23.75;;;;;;;;6489190;39;8966;-59
2023/09/14 07:51:36;;;;;;;;;23.00;20.50;;;;;;;;6488959;46;8952;-59
2023/09/14 07:57:39;;;;;;;;;20.50;18.75;;;;;;;;6488067;39;8965;-60
2023/09/14 08:03:44;;;;;;;;;26.75;22.25;;;;;;;;6487239;39;8953;-64
2023/09/14 08:09:49;;;;;;;;;18.50;17.50;;;;;;;;6488616;39;8918;-63
2023/09/14 08:15:57;;;;;;;;;23.50;20.50;;;;;;;;6489515;39;9110;-63
2023/09/14 08:22:10;;;;;;;;;32.00;28.75;;;;;;;;6488667;39;8897;-64
2023/09/14 08:28:18;;;;;;;;;19.00;19.00;;;;;;;;6488754;39;8889;-62
2023/09/14 08:34:22;;;;;;;;;22.25;20.50;;;;;;;;6488856;39;9541;-64
2023/09/14 08:40:42;;;;;;;;;23.00;20.75;;;;;;;;6489197;39;8935;-63
2023/09/14 08:46:48;;;;;;;;;25.00;21.75;;;;;;;;6487286;46;8953;-64
2023/09/14 08:52:52;;;;;;;;;22.50;17.00;;;;;;;;6490073;39;9003;-64
2023/09/14 08:58:55;;;;;;;;;22.50;20.50;;;;;;;;6488575;31;9053;-64
2023/09/14 09:05:02;;;;;;;;;20.50;15.25;;;;;;;;6489547;47;8885;-64
2023/09/14 09:11:07;;;;;;;;;19.75;15.25;;;;;;;;6489860;39;8842;-64
2023/09/14 09:17:11;;;;;;;;;21.00;19.00;;;;;;;;6326352;36;10001885;-63
2023/09/14 09:23:19;;;;;;;;;20.00;16.25;;;;;;;;6488408;47;8884;-63
2023/09/14 09:29:24;;;;;;;;;36.00;32.00;;;;;;;;6490803;46;8879;-64
2023/09/14 09:35:30;;;;;;;;;16.50;14.50;;;;;;;;6490300;39;8924;-63
2023/09/14 09:41:36;;;;;;;;;17.50;16.25;;;;;;;;6491428;31;8983;-66
2023/09/14 09:47:39;;;;;;;;;18.75;17.75;;;;;;;;6490966;31;8905;-63
2023/09/14 09:54:06;;;;;;;;;18.50;16.00;;;;;;;;6490176;39;9117;-64
2023/09/14 10:00:13;;;;;;;;;10.00;8.50;;;;;;;;6489896;39;8990;-62
2023/09/14 10:06:17;;;;;;;;;17.75;16.75;;;;;;;;6490728;39;8921;-63
2023/09/14 10:12:26;;;;;;;;;30.75;29.25;;;;;;;;6490475;39;8903;-64
2023/09/14 10:18:34;;;;;;;;;28.75;26.75;;;;;;;;6489649;31;8873;-62
2023/09/14 10:24:43;;;;;;;;;36.75;33.00;;;;;;;;6490493;39;9027;-64
2023/09/14 10:30:48;;;;;;;;;16.50;15.00;;;;;;;;6490976;39;9628;-64
2023/09/14 10:36:53;;;;;;;;;19.50;15.00;;;;;;;;6489892;46;9113;-62
2023/09/14 10:42:56;;;;;;;;;32.50;29.50;;;;;;;;6490164;39;8972;-62
2023/09/14 10:49:02;;;;;;;;;23.25;22.50;;;;;;;;6489752;31;8943;-64
2023/09/14 10:55:12;;;;;;;;;17.25;16.75;;;;;;;;6488333;31;9083;-63
2023/09/14 11:01:32;;;;;;;;;13.50;13.50;;;;;;;;6489040;39;8887;-62
2023/09/14 11:08:17;;;;;;;;;12.00;12.00;;;;;;;;6490931;39;8885;-63
2023/09/14 11:14:23;;;;;;;;;13.00;13.00;;;;;;;;6490174;39;8950;-64
2023/09/14 11:20:42;;;;;;;;;19.75;14.25;;;;;;;;6489678;39;8933;-63
2023/09/14 11:26:49;;;;;;;;;12.50;11.00;;;;;;;;6489796;31;8994;-64
2023/09/14 11:32:55;;;;;;;;;9.00;9.00;;;;;;;;6490661;31;8897;-64
2023/09/14 11:39:10;;;;;;;;;13.00;13.00;;;;;;;;6489952;46;8915;-63
2023/09/14 11:45:21;;;;;;;;;14.00;13.00;;;;;;;;6487774;39;9837;-62
2023/09/14 11:51:27;;;;;;;;;11.50;10.25;;;;;;;;6488526;31;8935;-62
2023/09/14 11:57:30;;;;;;;;;13.75;12.00;;;;;;;;6489051;39;9521;-63
2023/09/14 12:03:38;;;;;;;;;12.75;12.25;;;;;;;;6491886;31;9515;-63
2023/09/14 12:09:59;;;;;;;;;12.25;12.25;;;;;;;;6489427;46;8857;-65
2023/09/14 12:16:04;;;;;;;;;21.75;18.25;;;;;;;;6489788;39;8937;-63
2023/09/14 12:22:08;;;;;;;;;15.25;13.75;;;;;;;;6489136;46;8861;-63
2023/09/14 12:28:12;;;;;;;;;12.50;11.75;;;;;;;;6489082;39;8989;-65
2023/09/14 12:34:28;;;;;;;;;17.00;16.00;;;;;;;;6489245;46;8885;-63
2023/09/14 12:40:35;;;;;;;;;15.25;12.00;;;;;;;;6489081;39;8902;-63
2023/09/14 12:46:38;;;;;;;;;11.50;11.25;;;;;;;;6489492;31;8917;-65
2023/09/14 12:52:50;;;;;;;;;18.25;16.00;;;;;;;;6487873;39;8931;-64
2023/09/14 12:58:54;;;;;;;;;17.75;13.75;;;;;;;;6488809;39;8979;-63
2023/09/14 13:04:57;;;;;;;;;13.75;13.75;;;;;;;;6489399;39;8927;-65
2023/09/14 13:11:05;;;;;;;;;13.50;13.50;;;;;;;;6487944;31;9027;-63
2023/09/14 13:17:19;;;;;;;;;15.50;15.50;;;;;;;;6489460;31;9017;-62
2023/09/14 13:23:23;;;;;;;;;16.00;14.50;;;;;;;;6491156;39;8912;-64
2023/09/14 13:29:29;;;;;;;;;13.00;12.75;;;;;;;;6487023;46;8984;-64
2023/09/14 13:35:38;;;;;;;;;15.50;13.00;;;;;;;;6489940;39;8885;-65
2023/09/14 13:41:52;;;;;;;;;13.75;11.75;;;;;;;;6490416;31;8887;-64
2023/09/14 13:47:58;;;;;;;;;15.75;14.50;;;;;;;;6487735;39;9054;-65
2023/09/14 13:54:04;;;;;;;;;17.25;16.25;;;;;;;;6489396;31;8915;-62
2023/09/14 14:00:10;;;;;;;;;10.75;9.25;;;;;;;;6489035;31;8957;-61
2023/09/14 14:06:13;;;;;;;;;15.75;15.75;;;;;;;;6491170;39;9075;-61
2023/09/14 14:12:18;;;;;;;;;18.75;16.00;;;;;;;;6490804;31;8928;-61
2023/09/14 14:18:21;;;;;;;;;14.25;13.00;;;;;;;;6490341;39;8915;-63
2023/09/14 14:24:28;;;;;;;;;15.00;14.50;;;;;;;;6491055;39;8873;-62
2023/09/14 14:30:30;;;;;;;;;19.00;16.75;;;;;;;;6491265;46;9002;-62
2023/09/14 14:36:33;;;;;;;;;14.00;14.00;;;;;;;;6490987;46;8965;-61
2023/09/14 14:42:35;;;;;;;;;16.75;16.75;;;;;;;;6491368;39;8938;-61
2023/09/14 14:48:44;;;;;;;;;17.50;15.00;;;;;;;;6489659;39;8924;-63
2023/09/14 14:54:46;;;;;;;;;14.00;11.50;;;;;;;;6490770;46;9002;-63
2023/09/14 15:00:50;;;;;;;;;23.25;20.25;;;;;;;;6491169;39;8941;-61
2023/09/14 15:06:54;;;;;;;;;25.25;23.50;;;;;;;;6491231;39;8949;-60
2023/09/14 15:13:00;;;;;;;;;11.75;11.00;;;;;;;;6491703;39;9601;-60
2023/09/14 15:19:04;;;;;;;;;16.75;15.00;;;;;;;;6490541;39;8919;-62
2023/09/14 15:25:09;;;;;;;;;18.00;17.00;;;;;;;;6490848;39;8889;-61
2023/09/14 15:31:17;;;;;;;;;15.50;14.00;;;;;;;;6490444;46;8982;-61
2023/09/14 15:37:20;;;;;;;;;16.75;14.75;;;;;;;;6490919;39;8961;-60
2023/09/14 15:43:23;;;;;;;;;17.00;15.75;;;;;;;;6489448;46;8876;-60
2023/09/14 15:49:25;;;;;;;;;22.00;20.25;;;;;;;;6490291;31;8877;-61
2023/09/14 15:55:29;;;;;;;;;21.75;21.25;;;;;;;;6489501;46;8942;-61
2023/09/14 16:01:34;;;;;;;;;18.50;18.50;;;;;;;;6489222;39;8983;-60
2023/09/14 16:07:39;;;;;;;;;26.50;23.25;;;;;;;;6489344;46;8954;-59
2023/09/14 16:13:44;;;;;;;;;24.75;19.00;;;;;;;;6488907;39;8877;-60
